Time;durP1;ratioP1;P1;durP2;ratioP2;P2;SDS_P1;SDS_P2;PMS_P1;PMS_P2;Temp;Humidity;BMP_temperature;BMP_pressure;BME280_temperature;BME280_humidity;BME280_pressure;Samples;Min_cycle;Max_cycle;Signal;HPM_P1;HPM_P2
2021/05/19 00:00:16;;;;;;;6.27;4.80;;;;;;;11.44;78.73;99491.67;153939;1100;103240;-73
2021/05/19 00:03:20;;;;;;;7.23;5.63;;;;;;;11.40;79.09;99485.84;154021;1100;104741;-73
2021/05/19 00:06:23;;;;;;;7.80;5.43;;;;;;;11.40;78.93;99484.00;154020;1093;103117;-75
2021/05/19 00:09:27;;;;;;;7.20;4.50;;;;;;;11.40;79.21;99475.98;154008;1094;103093;-74
2021/05/19 00:12:30;;;;;;;6.27;4.50;;;;;;;11.37;78.77;99476.36;154008;1093;103209;-74
2021/05/19 00:15:34;;;;;;;6.50;5.10;;;;;;;11.40;78.95;99478.66;154003;1093;103129;-74
2021/05/19 00:18:38;;;;;;;7.25;5.10;;;;;;;11.37;79.70;99479.03;154031;1093;103122;-74
2021/05/19 00:21:42;;;;;;;6.67;4.83;;;;;;;11.38;78.87;99474.51;153975;1100;103132;-76
2021/05/19 00:24:45;;;;;;;5.80;5.15;;;;;;;11.37;79.25;99479.03;153987;1100;103208;-73
2021/05/19 00:27:51;;;;;;;7.57;5.13;;;;;;;11.29;79.43;99481.73;153961;1100;103197;-75
2021/05/19 00:30:56;;;;;;;6.63;4.90;;;;;;;11.24;79.07;99472.58;154001;1100;103183;-75
2021/05/19 00:34:00;;;;;;;6.83;5.07;;;;;;;11.22;80.18;99469.27;153966;1100;103192;-74
2021/05/19 00:37:04;;;;;;;7.50;5.30;;;;;;;11.20;78.88;99472.95;154012;1093;103121;-74
2021/05/19 00:40:11;;;;;;;7.73;5.50;;;;;;;11.15;79.65;99475.31;154023;1100;103207;-75
2021/05/19 00:43:14;;;;;;;7.90;5.77;;;;;;;11.07;79.56;99477.22;154060;1093;103582;-74
2021/05/19 00:46:18;;;;;;;7.17;5.07;;;;;;;11.02;79.70;99484.91;153959;1100;103122;-75
2021/05/19 00:49:22;;;;;;;6.20;4.77;;;;;;;11.00;79.64;99469.88;153941;1100;103119;-75
2021/05/19 00:52:25;;;;;;;6.10;5.10;;;;;;;11.06;79.27;99480.88;154029;1100;103125;-74
2021/05/19 00:55:30;;;;;;;6.70;5.70;;;;;;;11.04;79.77;99483.72;154024;1100;103277;-73
2021/05/19 00:58:35;;;;;;;6.80;5.80;;;;;;;11.07;80.09;99477.22;154043;1093;103173;-75
2021/05/19 01:01:39;;;;;;;7.40;6.00;;;;;;;11.04;79.36;99482.89;153979;1100;103110;-76
2021/05/19 01:04:47;;;;;;;7.70;5.70;;;;;;;11.01;79.64;99476.08;153956;1093;103203;-73
2021/05/19 01:11:34;;;;;;;;;;;;;;;10.97;79.79;99485.41;153980;1093;103125;-74
2021/05/19 01:14:39;;;;;;;8.03;5.73;;;;;;;10.93;79.93;99490.30;154090;1100;103097;-74
2021/05/19 01:17:43;;;;;;;7.57;6.37;;;;;;;10.88;80.82;99497.16;154031;1093;103097;-76
2021/05/19 01:20:48;;;;;;;7.90;5.73;;;;;;;10.87;80.39;99487.47;153911;1100;103208;-73
2021/05/19 01:23:52;;;;;;;7.10;5.20;;;;;;;10.91;80.04;99484.30;154062;1093;103171;-74
2021/05/19 01:26:56;;;;;;;7.70;5.67;;;;;;;11.00;79.91;99480.56;153973;1093;103278;-74
2021/05/19 01:30:01;;;;;;;9.40;6.13;;;;;;;11.05;79.82;99476.53;154005;1094;103227;-74
2021/05/19 01:33:05;;;;;;;8.53;6.53;;;;;;;11.08;79.88;99481.53;153984;1100;103183;-73
2021/05/19 01:36:10;;;;;;;9.20;6.40;;;;;;;11.07;79.98;99483.38;153944;1093;103187;-73
2021/05/19 01:39:14;;;;;;;8.55;6.00;;;;;;;11.06;80.11;99489.70;153995;1094;103115;-73
2021/05/19 01:42:18;;;;;;;7.77;6.90;;;;;;;11.10;79.55;99482.19;154000;1100;103192;-73
2021/05/19 01:45:27;;;;;;;7.17;6.33;;;;;;;11.10;79.28;99488.34;153974;1094;103172;-74
2021/05/19 01:48:32;;;;;;;11.17;7.77;;;;;;;11.13;79.88;99492.53;153966;1100;103217;-74
2021/05/19 01:51:37;;;;;;;7.67;6.43;;;;;;;11.10;79.45;99492.86;153981;1093;103096;-74
2021/05/19 01:54:44;;;;;;;7.10;6.00;;;;;;;11.11;79.59;99489.20;154002;1093;103191;-74
2021/05/19 01:57:50;;;;;;;7.60;6.03;;;;;;;11.10;79.60;99487.52;153932;1094;103280;-75
2021/05/19 02:00:55;;;;;;;7.77;6.70;;;;;;;11.11;79.57;99487.36;153992;1094;103183;-76
2021/05/19 02:04:11;;;;;;;7.37;6.23;;;;;;;11.04;80.28;99482.89;153985;1100;103125;-74
2021/05/19 02:07:18;;;;;;;8.73;6.90;;;;;;;10.95;79.68;99500.77;153934;1100;103211;-75
2021/05/19 02:10:26;;;;;;;9.85;6.20;;;;;;;10.91;79.58;99494.13;153969;1093;103489;-75
2021/05/19 02:13:30;;;;;;;7.27;5.47;;;;;;;10.93;80.51;99506.31;153990;1093;103134;-74
2021/05/19 02:16:34;;;;;;;7.70;6.15;;;;;;;10.97;79.74;99498.75;153949;1100;103100;-76
2021/05/19 02:19:39;;;;;;;7.77;6.47;;;;;;;10.98;79.61;99497.77;153961;1093;103189;-75
2021/05/19 02:22:45;;;;;;;7.03;6.03;;;;;;;11.08;79.44;99511.72;153971;1100;103219;-74
2021/05/19 02:25:49;;;;;;;6.70;5.47;;;;;;;11.10;79.09;99514.22;153977;1093;103200;-74
2021/05/19 02:28:53;;;;;;;7.57;4.97;;;;;;;11.15;79.69;99506.53;154028;1093;103580;-74
2021/05/19 02:31:57;;;;;;;6.40;5.65;;;;;;;11.26;79.95;99495.45;153995;1093;103266;-78
2021/05/19 02:35:01;;;;;;;8.00;6.50;;;;;;;11.27;79.61;99502.44;153964;1100;103128;-74
2021/05/19 02:38:05;;;;;;;8.20;6.47;;;;;;;11.18;79.76;99500.82;153955;1093;103127;-74
2021/05/19 02:41:09;;;;;;;9.37;7.00;;;;;;;11.13;78.76;99505.88;153982;1100;103212;-75
2021/05/19 02:44:13;;;;;;;6.60;5.50;;;;;;;11.12;79.48;99509.53;153947;1100;103483;-75
2021/05/19 02:47:17;;;;;;;6.37;5.30;;;;;;;11.21;79.32;99505.83;154038;1100;103516;-75
2021/05/19 02:50:20;;;;;;;7.53;6.20;;;;;;;11.29;78.98;99507.61;154038;1100;103103;-76
2021/05/19 02:53:24;;;;;;;8.10;6.43;;;;;;;11.32;78.92;99499.27;154023;1093;103173;-74
2021/05/19 02:56:28;;;;;;;9.80;7.00;;;;;;;11.25;79.23;99507.13;153960;1100;103481;-77
2021/05/19 02:59:32;;;;;;;10.23;8.27;;;;;;;11.16;79.50;99508.17;153951;1094;103165;-74
2021/05/19 03:02:36;;;;;;;8.57;6.63;;;;;;;11.20;79.15;99509.48;153970;1100;103192;-74
2021/05/19 03:05:39;;;;;;;7.83;6.80;;;;;;;11.28;79.15;99505.94;154042;1093;103571;-76
2021/05/19 03:08:43;;;;;;;9.70;7.90;;;;;;;11.33;79.48;99507.08;153946;1093;103230;-75
2021/05/19 03:11:47;;;;;;;9.13;7.60;;;;;;;11.32;79.65;99512.62;154023;1093;103150;-74
2021/05/19 03:14:50;;;;;;;9.40;7.57;;;;;;;11.33;79.34;99503.58;153982;1094;103356;-74
2021/05/19 03:17:54;;;;;;;10.20;7.93;;;;;;;11.34;79.42;99508.75;154019;1093;103200;-77
2021/05/19 03:21:00;;;;;;;10.53;7.97;;;;;;;11.33;79.15;99515.09;153945;1100;103190;-76
2021/05/19 03:24:05;;;;;;;9.70;7.10;;;;;;;11.44;79.04;99515.71;153970;1100;103240;-75
2021/05/19 03:27:09;;;;;;;10.97;8.37;;;;;;;11.48;79.48;99509.00;153986;1100;103117;-74
2021/05/19 03:30:16;;;;;;;11.10;8.77;;;;;;;11.39;79.07;99514.41;153992;1093;103187;-74
2021/05/19 03:33:20;;;;;;;10.50;8.97;;;;;;;11.39;79.15;99511.73;153996;1094;103146;-74
2021/05/19 03:36:24;;;;;;;11.63;9.67;;;;;;;11.45;79.74;99512.88;154018;1100;103594;-73
2021/05/19 03:39:28;;;;;;;12.43;9.63;;;;;;;11.51;79.31;99512.16;153950;1100;103192;-74
2021/05/19 03:42:31;;;;;;;10.80;8.83;;;;;;;11.50;79.83;99515.82;153958;1093;103199;-75
2021/05/19 03:45:35;;;;;;;11.57;9.57;;;;;;;11.59;79.56;99511.27;154013;1100;103190;-75
2021/05/19 03:48:38;;;;;;;12.05;9.65;;;;;;;11.63;78.82;99514.42;154039;1100;103146;-74
2021/05/19 03:51:43;;;;;;;10.47;9.37;;;;;;;11.71;79.74;99519.70;153988;1093;103151;-76
2021/05/19 03:54:47;;;;;;;13.37;11.10;;;;;;;11.80;79.34;99526.65;153977;1100;103127;-76
2021/05/19 03:57:51;;;;;;;13.33;9.80;;;;;;;11.79;79.94;99525.80;153978;1100;103512;-75
2021/05/19 04:00:54;;;;;;;11.73;9.80;;;;;;;11.85;79.68;99518.08;153926;1093;103650;-75
2021/05/19 04:03:58;;;;;;;12.97;10.47;;;;;;;12.05;79.27;99524.63;154022;1100;103143;-78
2021/05/19 04:07:01;;;;;;;12.30;10.47;;;;;;;12.04;78.69;99533.66;153951;1100;103123;-75
2021/05/19 04:10:06;;;;;;;13.47;11.43;;;;;;;11.99;79.33;99536.05;153980;1093;103112;-77
2021/05/19 04:13:10;;;;;;;14.00;11.67;;;;;;;11.96;79.83;99536.41;153958;1100;103243;-77
2021/05/19 04:16:13;;;;;;;14.23;10.07;;;;;;;12.01;79.33;99536.70;153974;1093;103122;-75
2021/05/19 04:19:17;;;;;;;14.63;10.13;;;;;;;12.13;79.43;99540.59;153990;1100;103199;-77
2021/05/19 04:22:20;;;;;;;12.80;10.57;;;;;;;12.27;79.14;99538.14;153980;1100;103140;-76
2021/05/19 04:25:24;;;;;;;13.73;11.30;;;;;;;12.46;79.03;99537.61;153974;1100;103197;-76
2021/05/19 04:28:27;;;;;;;13.50;11.53;;;;;;;12.51;78.38;99537.91;153991;1093;103116;-77
2021/05/19 04:31:31;;;;;;;14.50;12.10;;;;;;;12.48;78.67;99535.58;153970;1100;103193;-75
2021/05/19 04:34:37;;;;;;;14.00;10.53;;;;;;;12.43;78.66;99542.48;153966;1100;103598;-77
2021/05/19 04:37:41;;;;;;;13.60;10.40;;;;;;;12.45;79.57;99543.99;153965;1093;103138;-77
2021/05/19 04:40:46;;;;;;;13.57;12.07;;;;;;;12.55;78.78;99549.08;153922;1100;103088;-75
2021/05/19 04:43:49;;;;;;;13.17;10.70;;;;;;;12.48;79.29;99551.63;153990;1100;103101;-76
2021/05/19 04:46:53;;;;;;;13.05;11.20;;;;;;;12.50;79.35;99562.98;153985;1093;103167;-75
2021/05/19 04:49:56;;;;;;;12.80;10.63;;;;;;;12.38;79.17;99556.42;153976;1093;103194;-77
2021/05/19 04:53:00;;;;;;;12.53;10.50;;;;;;;12.34;78.97;99568.51;153957;1100;103236;-74
2021/05/19 04:56:04;;;;;;;13.43;11.60;;;;;;;12.34;79.17;99566.66;154016;1100;103134;-75
2021/05/19 04:59:08;;;;;;;15.20;11.83;;;;;;;12.29;79.44;99568.21;154000;1093;103153;-76
2021/05/19 05:02:11;;;;;;;14.17;11.90;;;;;;;12.31;79.02;99563.52;153940;1100;103196;-75
2021/05/19 05:05:15;;;;;;;13.30;11.40;;;;;;;12.40;79.58;99567.78;154002;1100;103189;-73
2021/05/19 05:08:18;;;;;;;16.30;11.45;;;;;;;12.42;79.22;99570.28;153967;1100;103166;-73
2021/05/19 05:11:22;;;;;;;12.90;10.57;;;;;;;12.43;79.23;99574.59;153933;1100;103100;-72
2021/05/19 05:14:26;;;;;;;13.53;11.10;;;;;;;12.47;79.00;99565.19;153970;1100;103168;-74
2021/05/19 05:17:29;;;;;;;14.10;10.95;;;;;;;12.49;79.16;99585.42;153958;1094;103196;-74
2021/05/19 05:20:33;;;;;;;14.30;10.93;;;;;;;12.48;79.40;99589.09;154028;1100;103112;-75
2021/05/19 05:23:36;;;;;;;12.73;11.30;;;;;;;12.43;78.78;99585.30;153931;1093;103107;-73
2021/05/19 05:26:40;;;;;;;11.80;9.67;;;;;;;12.32;79.36;99578.56;153936;1100;103123;-74
2021/05/19 05:29:43;;;;;;;11.03;9.27;;;;;;;12.38;79.25;99588.53;153994;1100;103107;-74
2021/05/19 05:32:47;;;;;;;14.00;10.53;;;;;;;12.47;78.87;99587.45;153970;1093;103215;-74
2021/05/19 05:35:50;;;;;;;12.53;10.50;;;;;;;12.47;78.74;99600.83;153977;1093;103187;-76
2021/05/19 05:38:54;;;;;;;13.03;11.27;;;;;;;12.60;78.84;99600.19;154004;1093;103150;-77
2021/05/19 05:41:57;;;;;;;16.83;11.63;;;;;;;12.63;78.62;99585.63;153941;1100;103183;-73
2021/05/19 05:45:01;;;;;;;12.03;9.50;;;;;;;12.69;78.94;99595.59;153969;1100;103122;-74
2021/05/19 05:48:05;;;;;;;13.63;9.87;;;;;;;12.71;78.16;99598.92;153986;1100;103255;-76
2021/05/19 05:51:09;;;;;;;13.93;10.37;;;;;;;12.75;78.73;99595.69;153982;1093;103134;-76
2021/05/19 05:54:12;;;;;;;14.07;11.10;;;;;;;12.81;78.74;99607.50;153976;1100;103164;-76
2021/05/19 05:57:16;;;;;;;11.90;10.57;;;;;;;12.82;78.27;99606.50;153958;1100;103123;-76
2021/05/19 06:00:21;;;;;;;11.57;9.13;;;;;;;12.85;78.24;99598.09;154052;1093;103195;-75
2021/05/19 06:03:25;;;;;;;12.20;9.53;;;;;;;12.97;78.28;99598.45;154073;1100;103269;-77
2021/05/19 06:06:28;;;;;;;10.97;9.30;;;;;;;13.01;77.51;99609.63;154027;1093;103187;-77
2021/05/19 06:09:32;;;;;;;11.20;9.05;;;;;;;13.11;77.31;99612.88;154049;1100;103128;-76
2021/05/19 06:12:36;;;;;;;10.33;9.27;;;;;;;13.27;77.83;99609.98;153939;1100;103121;-75
2021/05/19 06:15:39;;;;;;;14.43;9.63;;;;;;;13.39;76.27;99609.55;153979;1093;103190;-75
2021/05/19 06:18:43;;;;;;;10.53;8.80;;;;;;;13.51;76.70;99613.40;153979;1093;103304;-73
2021/05/19 06:21:46;;;;;;;9.43;8.43;;;;;;;13.60;76.18;99608.77;153984;1100;103189;-77
2021/05/19 06:24:50;;;;;;;10.53;8.53;;;;;;;13.73;76.47;99614.29;153937;1093;103535;-74
2021/05/19 06:27:53;;;;;;;9.47;8.47;;;;;;;13.81;74.63;99610.66;153980;1093;103122;-73
2021/05/19 06:30:57;;;;;;;11.27;9.10;;;;;;;13.84;76.24;99604.92;154066;1093;103189;-74
2021/05/19 06:34:00;;;;;;;10.50;9.07;;;;;;;13.80;75.48;99614.34;154135;1093;103276;-73
2021/05/19 06:37:04;;;;;;;11.13;9.50;;;;;;;13.66;76.03;99616.88;154076;1093;103209;-74
2021/05/19 06:40:11;;;;;;;10.13;8.83;;;;;;;13.52;74.35;99617.75;153947;1100;103199;-74
2021/05/19 06:43:14;;;;;;;10.37;8.47;;;;;;;13.49;75.19;99615.44;154013;1100;103141;-74
2021/05/19 06:46:18;;;;;;;10.93;8.90;;;;;;;13.51;75.39;99621.44;154026;1100;103212;-75
2021/05/19 06:49:21;;;;;;;13.43;9.23;;;;;;;13.43;74.88;99629.59;153996;1093;103187;-73
2021/05/19 06:52:25;;;;;;;11.25;9.10;;;;;;;13.22;73.77;99623.14;154071;1093;103193;-74
2021/05/19 06:55:28;;;;;;;13.87;9.77;;;;;;;13.24;75.57;99630.96;154284;1093;103201;-77
2021/05/19 06:58:32;;;;;;;10.87;8.50;;;;;;;13.32;75.03;99628.23;154127;1094;103143;-74
2021/05/19 07:01:36;;;;;;;10.37;7.97;;;;;;;13.37;74.63;99631.17;154010;1094;103126;-73
2021/05/19 07:04:39;;;;;;;12.23;8.03;;;;;;;13.36;75.40;99637.56;153999;1093;103217;-75
2021/05/19 07:07:46;;;;;;;12.10;9.33;;;;;;;13.56;74.08;99640.48;154034;1093;103190;-74
2021/05/19 07:10:49;;;;;;;11.47;8.90;;;;;;;13.81;74.63;99637.47;154038;1093;103115;-73
2021/05/19 07:13:56;;;;;;;10.80;8.13;;;;;;;13.94;73.22;99646.48;153994;1093;103208;-76
2021/05/19 07:17:00;;;;;;;10.20;8.35;;;;;;;13.94;72.00;99637.62;154026;1093;103148;-74
2021/05/19 07:20:05;;;;;;;10.10;7.40;;;;;;;13.89;70.85;99629.30;154004;1093;103366;-74
2021/05/19 07:23:08;;;;;;;10.65;8.05;;;;;;;13.76;73.53;99635.38;154060;1093;103202;-75
2021/05/19 07:26:12;;;;;;;11.90;8.83;;;;;;;13.59;73.24;99641.95;154068;1100;103121;-75
2021/05/19 07:29:16;;;;;;;10.07;8.53;;;;;;;13.52;73.58;99644.56;153970;1093;103242;-73
2021/05/19 07:32:19;;;;;;;9.57;8.27;;;;;;;13.49;73.65;99645.77;154042;1100;103122;-75
2021/05/19 07:35:23;;;;;;;10.20;8.03;;;;;;;13.37;73.40;99652.61;153989;1093;103189;-73
2021/05/19 07:38:27;;;;;;;10.90;7.23;;;;;;;13.41;74.00;99653.07;154034;1100;103126;-73
2021/05/19 07:41:31;;;;;;;11.87;7.53;;;;;;;13.51;74.11;99651.78;154057;1100;103119;-72
2021/05/19 07:44:34;;;;;;;10.63;7.87;;;;;;;13.45;73.84;99665.08;153999;1100;103192;-72
2021/05/19 07:47:38;;;;;;;9.50;7.45;;;;;;;13.48;73.21;99665.53;153979;1100;103041;-72
2021/05/19 07:50:41;;;;;;;11.67;7.07;;;;;;;13.65;74.21;99660.81;154043;1093;103234;-74
2021/05/19 07:53:45;;;;;;;8.17;6.53;;;;;;;13.79;73.17;99667.16;154103;1093;103231;-70
2021/05/19 07:56:53;;;;;;;10.53;6.60;;;;;;;13.82;72.98;99671.30;154059;1100;103550;-71
2021/05/19 08:00:07;;;;;;;8.53;5.70;;;;;;;13.84;72.66;99663.92;153974;1100;103210;-70
2021/05/19 08:03:15;;;;;;;8.53;5.23;;;;;;;13.71;71.01;99672.63;154087;1093;103222;-71
2021/05/19 08:06:20;;;;;;;7.35;5.05;;;;;;;13.54;71.17;99667.47;154069;1093;103323;-72
2021/05/19 08:09:23;;;;;;;8.17;5.57;;;;;;;13.43;71.40;99667.11;154103;1093;103120;-71
2021/05/19 08:12:27;;;;;;;8.67;5.60;;;;;;;13.30;71.02;99673.97;153998;1093;103107;-72
2021/05/19 08:15:30;;;;;;;6.80;5.50;;;;;;;13.34;72.06;99677.94;154164;1093;103118;-72
2021/05/19 08:18:34;;;;;;;7.63;5.00;;;;;;;13.26;71.97;99678.01;154078;1093;103138;-73
2021/05/19 08:21:38;;;;;;;7.40;6.07;;;;;;;13.08;71.36;99688.23;154066;1100;103205;-70
2021/05/19 08:24:43;;;;;;;7.77;5.40;;;;;;;12.92;71.77;99682.03;153806;1100;103207;-71
2021/05/19 08:27:47;;;;;;;7.90;5.30;;;;;;;12.83;72.31;99683.11;153827;1093;103241;-73
2021/05/19 08:30:51;;;;;;;7.60;5.80;;;;;;;12.80;72.03;99677.29;154052;1093;103187;-72
2021/05/19 08:33:56;;;;;;;6.93;5.77;;;;;;;12.62;71.27;99680.30;154061;1093;103166;-71
2021/05/19 08:37:00;;;;;;;7.23;5.53;;;;;;;12.56;72.15;99685.35;154038;1100;103184;-72
2021/05/19 08:40:05;;;;;;;7.57;5.33;;;;;;;12.62;72.25;99686.48;154110;1100;103209;-71
2021/05/19 08:43:12;;;;;;;7.57;5.73;;;;;;;12.67;71.84;99691.31;153998;1093;103121;-71
2021/05/19 08:46:16;;;;;;;8.77;6.13;;;;;;;12.66;71.67;99692.31;153882;1100;103210;-73
2021/05/19 08:49:19;;;;;;;8.17;5.40;;;;;;;12.77;72.32;99691.88;154031;1094;103122;-72
2021/05/19 08:52:23;;;;;;;6.17;5.07;;;;;;;12.91;71.88;99684.88;154005;1100;103264;-74
2021/05/19 08:55:28;;;;;;;6.93;5.47;;;;;;;13.09;71.64;99698.77;154060;1100;103146;-72
2021/05/19 08:58:32;;;;;;;6.65;5.45;;;;;;;13.46;70.86;99689.02;154010;1099;103193;-72
2021/05/19 09:01:41;;;;;;;7.33;5.50;;;;;;;13.70;69.02;99695.09;153992;1100;103116;-71
2021/05/19 09:04:46;;;;;;;6.73;5.20;;;;;;;13.87;69.86;99695.71;154024;1094;103116;-72
2021/05/19 09:07:51;;;;;;;7.10;5.30;;;;;;;13.89;69.03;99686.45;153966;1093;103276;-66
2021/05/19 09:11:03;;;;;;;7.40;5.67;;;;;;;14.04;67.64;99699.00;153717;1100;103157;-67
2021/05/19 09:14:14;;;;;;;7.05;5.20;;;;;;;14.14;67.92;99695.01;153886;1093;103196;-66
2021/05/19 09:17:20;;;;;;;7.67;5.80;;;;;;;14.23;67.76;99700.25;153824;1100;103119;-69
2021/05/19 09:20:24;;;;;;;7.60;5.67;;;;;;;14.39;68.32;99693.79;153876;1093;103122;-67
2021/05/19 09:23:28;;;;;;;6.97;5.43;;;;;;;14.53;67.14;99698.28;153790;1100;103366;-67
2021/05/19 09:26:32;;;;;;;6.30;5.00;;;;;;;14.70;68.00;99699.70;153919;1093;103217;-68
2021/05/19 09:29:37;;;;;;;6.50;5.25;;;;;;;14.91;66.25;99693.47;153979;1100;103195;-66
2021/05/19 09:32:43;;;;;;;5.90;4.90;;;;;;;15.08;65.86;99690.47;153993;1093;103122;-66
2021/05/19 09:36:08;;;;;;;6.27;5.03;;;;;;;15.39;65.59;99690.03;153843;1100;103188;-66
2021/05/19 09:39:11;;;;;;;6.07;4.70;;;;;;;15.67;65.62;99681.09;153820;1100;103293;-67
2021/05/19 09:42:15;;;;;;;6.10;4.75;;;;;;;15.80;65.10;99685.70;153886;1100;103481;-66
2021/05/19 09:45:24;;;;;;;6.00;4.73;;;;;;;15.70;63.45;99676.14;153919;1100;103193;-66
2021/05/19 09:48:28;;;;;;;6.00;5.00;;;;;;;15.66;61.92;99677.55;153886;1094;103152;-68
2021/05/19 09:51:32;;;;;;;6.77;4.67;;;;;;;15.81;65.63;99668.55;153851;1093;103207;-69
2021/05/19 09:54:38;;;;;;;5.60;4.37;;;;;;;16.02;63.20;99673.78;154090;1100;103209;-69
2021/05/19 09:57:48;;;;;;;5.30;3.80;;;;;;;15.89;61.99;99673.73;153890;1100;103128;-67
2021/05/19 10:00:52;;;;;;;4.33;3.10;;;;;;;15.98;60.56;99659.08;155146;1100;103097;-68
2021/05/19 10:03:55;;;;;;;3.93;3.10;;;;;;;16.10;62.88;99670.08;154289;1100;104287;-68
2021/05/19 10:06:59;;;;;;;3.00;2.53;;;;;;;16.18;61.74;99660.98;154000;1101;103192;-67
2021/05/19 10:10:03;;;;;;;3.60;2.40;;;;;;;16.12;59.61;99669.88;154045;1101;103368;-67
2021/05/19 10:13:08;;;;;;;3.80;3.17;;;;;;;16.02;58.99;99673.78;153851;1101;103194;-67
2021/05/19 10:16:15;;;;;;;3.80;2.90;;;;;;;15.98;59.77;99675.22;153996;1093;103471;-67
2021/05/19 10:19:25;;;;;;;3.70;2.90;;;;;;;15.92;57.25;99667.97;153921;1093;103110;-66
2021/05/19 10:22:32;;;;;;;3.30;3.00;;;;;;;15.92;58.01;99673.34;153799;1100;103123;-66
2021/05/19 10:25:42;;;;;;;3.90;3.50;;;;;;;15.89;58.46;99665.66;153885;1094;103121;-66
2021/05/19 10:28:48;;;;;;;5.80;3.30;;;;;;;15.66;56.60;99665.97;154037;1093;103539;-66
2021/05/19 10:31:51;;;;;;;4.03;3.27;;;;;;;15.56;58.30;99671.72;153948;1093;103139;-66
2021/05/19 10:34:57;;;;;;;4.25;3.00;;;;;;;15.65;59.89;99673.21;154214;1094;103122;-68
2021/05/19 10:38:18;;;;;;;5.70;3.57;;;;;;;15.60;56.36;99678.34;154008;1100;103211;-66
2021/05/19 10:41:36;;;;;;;4.00;3.40;;;;;;;15.64;58.72;99663.47;153994;1100;103189;-66
2021/05/19 10:45:06;;;;;;;4.20;3.60;;;;;;;15.56;55.50;99673.59;153925;1094;103218;-67
2021/05/19 10:48:28;;;;;;;3.60;3.20;;;;;;;15.73;57.09;99666.01;154148;1101;103192;-67
2021/05/19 10:51:37;;;;;;;4.20;3.63;;;;;;;15.99;57.28;99670.66;155613;1100;103215;-67
2021/05/19 10:58:36;;;;;;;3.43;3.00;;;;;;;16.31;54.49;99676.33;153840;1100;103200;-68
2021/05/19 11:01:58;;;;;;;3.20;2.90;;;;;;;16.38;55.15;99664.54;153831;1100;103506;-67
2021/05/19 11:05:19;;;;;;;4.27;3.40;;;;;;;16.44;54.29;99666.41;153795;1093;103212;-67
2021/05/19 11:08:23;;;;;;;3.50;2.90;;;;;;;16.38;53.01;99661.84;153837;1100;103107;-68
2021/05/19 11:11:30;;;;;;;6.70;3.40;;;;;;;16.31;52.73;99671.77;153985;1093;103192;-66
2021/05/19 11:14:41;;;;;;;3.53;3.10;;;;;;;16.43;56.46;99664.73;153864;1100;103602;-67
2021/05/19 11:17:51;;;;;;;5.87;3.20;;;;;;;16.53;52.30;99675.09;153862;1100;103196;-68
2021/05/19 11:20:55;;;;;;;4.20;3.07;;;;;;;16.52;54.24;99678.84;153844;1093;103263;-66
2021/05/19 11:24:11;;;;;;;3.93;2.87;;;;;;;16.63;54.95;99683.61;154176;1100;103163;-66
2021/05/19 11:27:18;;;;;;;5.33;3.20;;;;;;;16.76;55.71;99674.69;153947;1100;103211;-67
2021/05/19 11:30:26;;;;;;;5.77;3.73;;;;;;;16.85;56.41;99667.27;153830;1093;103183;-67
2021/05/19 11:33:30;;;;;;;5.73;3.80;;;;;;;17.01;55.65;99671.39;153908;1100;103133;-69
2021/05/19 11:36:37;;;;;;;4.37;3.43;;;;;;;17.00;55.33;99667.88;153870;1093;103152;-66
2021/05/19 11:39:45;;;;;;;4.63;3.20;;;;;;;16.99;55.28;99663.50;153851;1093;103137;-67
2021/05/19 11:42:56;;;;;;;5.33;3.20;;;;;;;16.82;49.47;99668.52;153933;1093;103194;-67
2021/05/19 11:46:00;;;;;;;3.80;3.30;;;;;;;16.55;52.38;99661.43;153873;1093;103195;-72
2021/05/19 11:49:11;;;;;;;3.50;3.00;;;;;;;16.57;53.18;99662.05;153932;1093;103128;-69
2021/05/19 11:52:14;;;;;;;3.80;3.17;;;;;;;16.54;53.05;99665.17;153750;1100;103192;-68
2021/05/19 11:55:30;;;;;;;3.60;2.80;;;;;;;16.36;53.23;99663.06;153749;1093;103200;-67
2021/05/19 11:58:34;;;;;;;3.70;2.80;;;;;;;16.14;53.86;99676.70;153887;1100;103180;-68
2021/05/19 12:01:37;;;;;;;4.30;3.00;;;;;;;16.01;54.39;99677.52;153892;1100;103266;-67
2021/05/19 12:04:42;;;;;;;3.50;2.97;;;;;;;15.93;55.14;99671.48;153961;1100;103141;-67
2021/05/19 12:07:45;;;;;;;3.73;3.13;;;;;;;15.92;53.07;99677.88;153891;1100;103192;-68
2021/05/19 12:11:01;;;;;;;3.47;3.17;;;;;;;15.87;54.85;99671.24;153787;1100;103207;-68
2021/05/19 12:14:08;;;;;;;4.23;2.90;;;;;;;15.88;55.71;99674.78;153915;1093;103200;-67
2021/05/19 12:17:12;;;;;;;5.57;3.00;;;;;;;16.01;55.82;99674.83;153921;1100;103273;-67
2021/05/19 12:20:25;;;;;;;4.63;3.20;;;;;;;16.19;55.27;99676.11;153903;1093;103192;-68
2021/05/19 12:23:29;;;;;;;4.50;3.50;;;;;;;16.30;55.25;99675.48;153839;1093;103192;-68
2021/05/19 12:26:33;;;;;;;5.23;3.70;;;;;;;16.46;55.01;99675.11;153819;1100;103496;-68
2021/05/19 12:29:41;;;;;;;4.60;3.07;;;;;;;16.56;55.44;99673.88;153935;1100;103214;-68
2021/05/19 12:32:59;;;;;;;3.43;2.93;;;;;;;16.66;55.24;99674.28;153854;1093;103179;-68
2021/05/19 12:36:03;;;;;;;4.67;2.73;;;;;;;16.81;55.48;99666.81;153884;1100;103129;-68
2021/05/19 12:39:08;;;;;;;3.13;2.30;;;;;;;17.04;56.01;99676.38;153867;1093;103208;-68
2021/05/19 12:42:17;;;;;;;3.77;2.63;;;;;;;17.33;54.75;99663.45;153852;1100;103140;-69
2021/05/19 12:45:25;;;;;;;2.63;2.40;;;;;;;17.65;55.46;99662.51;153856;1093;103583;-68
2021/05/19 12:49:32;;;;;;;5.00;3.43;;;;;;;18.02;54.63;99651.16;153853;1093;103198;-69
2021/05/19 12:52:43;;;;;;;5.20;2.80;;;;;;;18.15;52.91;99656.47;154032;1093;103170;-67
2021/05/19 12:55:46;;;;;;;4.23;3.33;;;;;;;18.18;53.88;99649.80;153908;1093;103138;-68
2021/05/19 12:58:52;;;;;;;3.20;2.83;;;;;;;18.17;53.52;99653.56;153891;1093;103125;-68
2021/05/19 13:01:56;;;;;;;4.60;3.40;;;;;;;17.98;50.60;99666.95;153876;1093;103123;-68
2021/05/19 13:04:59;;;;;;;4.03;2.90;;;;;;;17.92;51.84;99648.92;154006;1100;103299;-67
2021/05/19 13:08:04;;;;;;;4.50;2.50;;;;;;;18.22;53.73;99657.23;153816;1100;103572;-68
2021/05/19 13:11:21;;;;;;;3.93;2.70;;;;;;;18.41;52.12;99660.03;153883;1093;103211;-68
2021/05/19 13:14:32;;;;;;;4.07;2.60;;;;;;;18.53;51.71;99652.05;153930;1093;103205;-68
2021/05/19 13:17:43;;;;;;;;;;;;;;;18.49;52.72;99656.23;153874;1100;103198;-71
2021/05/19 13:20:52;;;;;;;3.20;2.80;;;;;;;18.51;51.25;99667.64;153887;1100;103202;-70
2021/05/19 13:23:58;;;;;;;3.07;2.57;;;;;;;18.48;52.58;99660.00;153854;1093;103150;-71
2021/05/19 13:27:02;;;;;;;220.23;72.80;;;;;;;18.53;52.96;99649.34;153982;1093;103193;-68
2021/05/19 13:30:09;;;;;;;245.20;117.63;;;;;;;18.65;52.96;99650.30;153867;1093;103509;-69
2021/05/19 13:33:23;;;;;;;20.10;10.67;;;;;;;18.53;52.05;99658.27;153909;1100;103150;-68
2021/05/19 13:36:39;;;;;;;6.40;4.57;;;;;;;18.17;51.07;99661.66;153831;1100;103579;-68
2021/05/19 13:39:43;;;;;;;5.37;3.37;;;;;;;18.13;51.65;99653.17;153848;1100;103196;-67
2021/05/19 13:42:47;;;;;;;3.60;2.93;;;;;;;18.04;50.07;99663.38;153895;1100;103205;-68
2021/05/19 13:45:51;;;;;;;5.17;3.10;;;;;;;17.75;49.50;99662.05;153843;1100;103125;-67
2021/05/19 13:48:55;;;;;;;2.90;1.80;;;;;;;17.34;47.40;99674.03;153819;1100;103200;-67
2021/05/19 13:52:01;;;;;;;40.23;20.43;;;;;;;17.01;49.91;99677.63;154859;1100;103212;-68
2021/05/19 13:55:06;;;;;;;5.93;3.67;;;;;;;17.04;48.07;99670.98;153887;1100;103126;-67
2021/05/19 13:58:11;;;;;;;2.43;2.23;;;;;;;16.95;50.19;99674.92;153937;1093;103212;-72
2021/05/19 14:01:15;;;;;;;8.10;4.80;;;;;;;16.77;49.17;99681.74;154231;1100;103189;-72
2021/05/19 14:04:19;;;;;;;3.00;2.27;;;;;;;16.67;49.83;99678.65;154075;1093;103205;-72
2021/05/19 14:07:22;;;;;;;3.13;2.37;;;;;;;16.51;47.97;99687.94;153974;1093;103256;-73
2021/05/19 14:10:29;;;;;;;2.83;2.30;;;;;;;16.32;50.08;99678.83;154042;1100;103203;-72
2021/05/19 14:13:37;;;;;;;3.47;2.47;;;;;;;16.07;49.09;99698.23;154033;1100;103160;-71
2021/05/19 14:16:57;;;;;;;3.93;2.90;;;;;;;15.93;50.69;99680.37;153978;1100;103112;-73